Flight Track Log - Related Links

Times and Time Zones

All times are in EDT time to prevent confusion due to time zone crossing. See the SWA197 flight status page for this flight to view local times or setup timezone preferences in your user account.

Time Position Orientation Groundspeed Altitude Reporting Facility
EDT Latitude Longitude Course Direction KTS MPH feet Rate Location/Type
Thu 08:40:21 PM 39.1167 -76.6333 184° South 188 216 3,500  Level Potomac TRACON
Thu 08:41:27 PM 39.0500 -76.5667 142° Southeast 252 290 5,800 2,551 Climbing Potomac TRACON
Thu 08:42:28 PM 39.0000 -76.5167 142° Southeast 286 329 8,900 2,620 Climbing Potomac TRACON
Thu 08:44:05 PM 38.8719 -76.5408 188° South 318 366 12,700 1,974 Climbing Washington Center
Thu 08:45:00 PM 38.6889 -76.7061 184° South  Level FlightAware Approximate
Thu 08:45:03 PM 38.7883 -76.5878 204° Southwest 323 372 14,000  Level Washington Center
Thu 08:46:04 PM 38.7067 -76.6372 205° Southwest 328 377 14,000  Level Washington Center
Thu 08:47:05 PM 38.6247 -76.6892 206° Southwest 333 383 14,000  Level Washington Center
Thu 08:48:05 PM 38.5411 -76.7250 199° South 333 383 14,000  Level Washington Center
Thu 08:49:04 PM 38.4475 -76.7158 176° South 327 376 14,000  Level Washington Center
Thu 08:50:05 PM 38.3536 -76.7011 173° South 333 383 14,000  Level Washington Center
Thu 08:51:03 PM 38.2558 -76.6864 173° South 341 392 14,000  Level Washington Center
Thu 08:52:04 PM 38.1558 -76.6717 173° South 356 410 14,000  Level Washington Center
Thu 08:53:05 PM 38.0578 -76.6678 178° South 356 410 14,000  Level Washington Center
Thu 08:54:03 PM 37.9556 -76.6742 183° South 356 410 14,000  Level Washington Center
Thu 08:55:04 PM 37.8533 -76.6753 180° South 366 421 14,000  Level Washington Center
Thu 08:56:04 PM 37.7750 -76.5822 137° Southeast 345 397 14,000  Level Washington Center
Thu 08:56:34 PM 37.7397 -76.5372 135° Southeast 389 448 14,000 -98 Level Washington Center
Thu 08:57:05 PM 37.7028 -76.4817 130° Southeast 363 418 13,900 -1,343 Descending Washington Center
Thu 08:57:41 PM 37.6572 -76.4233 135° Southeast 384 442 12,500 -1,967 Descending Washington Center
Thu 08:58:06 PM 37.6303 -76.3889 135° Southeast 368 423 11,900 -1,220 Descending Washington Center
Thu 08:58:40 PM 37.5681 -76.3700 166° South 368 423 11,300 -1,034 Descending Washington Center
Thu 08:59:04 PM 37.5325 -76.3539 160° South 350 403 10,900 -1,100 Descending Washington Center
Thu 08:59:40 PM 37.4700 -76.3456 174° South 348 400 10,200 -1,000 Descending Washington Center
Thu 09:00:04 PM 37.4367 -76.3294 159° South 350 403 9,900 -575 Descending Washington Center
Thu 09:00:53 PM 37.3742 -76.3211 174° South 288 331 9,500 -590 Descending Washington Center
Thu 09:01:05 PM 37.3575 -76.3131 159° South 326 375 9,300 -1,309 Descending Washington Center
Thu 09:01:48 PM 37.2992 -76.3019 171° South 277 319 8,300 -1,119 Descending Washington Center
Thu 09:02:04 PM 37.2825 -76.2967 166° South 298 343 8,200 -1,200 Descending Washington Center
Thu 09:02:43 PM 37.2306 -76.2883 173° South 277 319 7,200 -1,377 Descending Washington Center
Thu 09:03:05 PM 37.2075 -76.2778 160° South 285 328 6,800 -1,091 Descending Washington Center
Thu 09:03:38 PM 37.1639 -76.2694 171° South 272 313 6,200 -1,034 Descending Washington Center
Thu 09:04:03 PM 37.1347 -76.2589 164° South 275 316 5,800 -984 Descending Washington Center
Thu 09:04:39 PM 37.0908 -76.2533 174° South 267 307 5,200 -1,000 Descending Washington Center
Thu 09:05:03 PM 37.0617 -76.2425 163° South 275 316 4,800 -1,111 Descending Washington Center
Thu 09:05:33 PM 37.0283 -76.2553 197° South 256 295 4,200 -1,121 Descending Washington Center
Thu 09:06:34 PM 36.9675 -76.2964 208° Southwest 248 285 3,100 -595 Descending Washington Center
Thu 09:07:34 PM 36.9111 -76.3375 210° Southwest 228 262 3,000 -50 Descending Washington Center
Thu 09:08:35 PM 36.8544 -76.3836 213° Southwest 230 265 3,000 -197 Level Washington Center
Thu 09:09:36 PM 36.7981 -76.3986 192° South 219 252 2,600 -689 Descending Washington Center
Thu 09:10:37 PM 36.7817 -76.3361 108° East 193 222 1,600 -496 Descending Washington Center
Thu 09:11:37 PM 36.8069 -76.2897 56° Northeast 151 174 1,600 -56 Level Washington Center
Thu 09:12:25 PM 36.8322 -76.2667 36° Northeast 146 168 1,500 -436 Descending Washington Center
Thu 09:13:27 PM 36.8617 -76.2383 38° Northeast 119 137 800 -677 Descending Washington Center

Login

Don't have an account? Register now (free) for customized features, flight alerts, and more!